Time;durP1;ratioP1;P1;durP2;ratioP2;P2;SDS_P1;SDS_P2;PMS_P1;PMS_P2;Temp;Humidity;BMP_temperature;BMP_pressure;BME280_temperature;BME280_humidity;BME280_pressure;Samples;Min_cycle;Max_cycle;Signal;HPM_P1;HPM_P2
2024/02/17 06:00:30;;;;;;;17.50;10.90;;;11.60;94.90;;;;;;4917630;23;20039;31
2024/02/17 06:02:34;;;;;;;18.27;10.38;;;11.60;94.30;;;;;;4022607;29;20105;-81
2024/02/17 06:04:36;;;;;;;18.95;11.18;;;11.60;94.40;;;;;;4007210;29;20113;-82
2024/02/17 06:06:39;;;;;;;19.10;10.77;;;11.40;94.60;;;;;;4023913;29;20073;-84
2024/02/17 06:08:42;;;;;;;17.83;10.25;;;11.50;94.60;;;;;;4023572;29;20160;-82
2024/02/17 06:10:44;;;;;;;17.65;10.68;;;11.40;94.50;;;;;;4025542;29;20050;-81
2024/02/17 06:12:48;;;;;;;18.17;11.15;;;11.40;94.30;;;;;;4024939;29;20106;-82
2024/02/17 06:14:50;;;;;;;20.30;11.95;;;11.30;94.60;;;;;;4038028;29;20053;-81
2024/02/17 06:16:52;;;;;;;20.27;12.00;;;11.30;94.20;;;;;;4024395;29;20061;-79
2024/02/17 06:21:20;;;;;;;24.77;14.55;;;11.30;94.20;;;;;;4023384;29;20068;-79
2024/02/17 06:23:21;;;;;;;22.48;14.07;;;11.30;93.90;;;;;;4023587;29;20122;-79
2024/02/17 06:25:23;;;;;;;21.92;13.93;;;11.30;94.10;;;;;;4023240;29;20105;-76
2024/02/17 06:27:25;;;;;;;24.52;14.20;;;11.30;94.00;;;;;;4023438;29;20057;-78
2024/02/17 06:29:27;;;;;;;24.92;14.90;;;11.30;93.90;;;;;;4023463;29;20081;-83
2024/02/17 06:31:29;;;;;;;23.00;14.82;;;11.20;93.90;;;;;;4017816;29;20050;-81
2024/02/17 06:33:31;;;;;;;23.90;14.80;;;11.20;93.90;;;;;;4021547;29;20053;-81
2024/02/17 06:35:35;;;;;;;26.45;15.43;;;11.30;93.80;;;;;;4022416;29;20073;-83
2024/02/17 06:37:38;;;;;;;26.08;16.00;;;11.30;93.50;;;;;;4023071;29;20078;-83
2024/02/17 06:39:40;;;;;;;28.05;15.77;;;11.30;93.40;;;;;;4023255;29;20057;-84
2024/02/17 06:41:41;;;;;;;26.67;16.90;;;11.30;93.40;;;;;;4023395;29;20045;-84
2024/02/17 06:43:43;;;;;;;25.27;15.25;;;11.30;93.30;;;;;;4022642;29;20056;-80
2024/02/17 06:45:43;;;;;;;25.20;15.88;;;11.30;93.40;;;;;;4022512;29;20109;-81
2024/02/17 06:47:45;;;;;;;27.58;15.82;;;11.30;93.80;;;;;;4015185;29;20449;-81
2024/02/17 06:49:46;;;;;;;25.35;15.05;;;11.30;93.40;;;;;;4022966;29;20045;-79
2024/02/17 06:51:49;;;;;;;25.13;15.23;;;11.30;93.40;;;;;;4023132;29;20105;-83
2024/02/17 06:53:51;;;;;;;25.60;15.30;;;11.40;93.30;;;;;;4023206;29;20385;-82
2024/02/17 06:55:52;;;;;;;28.20;16.02;;;11.40;93.40;;;;;;4022367;29;20070;-82
2024/02/17 06:57:54;;;;;;;25.80;15.23;;;11.50;93.60;;;;;;4022988;29;20049;-83
2024/02/17 06:59:57;;;;;;;27.60;15.85;;;11.50;93.70;;;;;;4034649;29;20102;-83
2024/02/17 07:02:00;;;;;;;26.70;15.77;;;11.50;93.80;;;;;;4022646;29;20058;-84
2024/02/17 07:04:02;;;;;;;29.25;16.02;;;11.40;93.90;;;;;;4026877;29;20075;-80
2024/02/17 07:06:05;;;;;;;28.77;16.05;;;11.40;94.00;;;;;;4028334;29;20058;-79
2024/02/17 07:08:09;;;;;;;25.67;15.68;;;11.40;94.10;;;;;;4037132;29;20057;-82
2024/02/17 07:10:13;;;;;;;24.98;15.02;;;11.50;94.10;;;;;;4037099;29;20053;-83
2024/02/17 07:12:15;;;;;;;24.55;14.75;;;11.50;94.20;;;;;;4045607;29;20077;-82
2024/02/17 07:14:17;;;;;;;25.80;15.05;;;11.50;94.20;;;;;;4036811;29;20060;-83
2024/02/17 07:16:19;;;;;;;28.38;17.05;;;11.50;93.80;;;;;;4027578;29;20461;-75
2024/02/17 07:18:21;;;;;;;23.58;14.30;;;11.50;93.30;;;;;;4007903;29;20133;-77
2024/02/17 07:20:24;;;;;;;28.67;15.98;;;11.50;93.80;;;;;;4022197;29;20053;-79
2024/02/17 07:22:25;;;;;;;26.55;16.02;;;11.40;94.00;;;;;;4038202;29;20464;-77
2024/02/17 07:24:28;;;;;;;26.10;14.30;;;11.40;94.10;;;;;;4037872;29;20049;-78
2024/02/17 07:26:30;;;;;;;26.27;14.98;;;11.40;94.10;;;;;;4030503;29;20053;-78
2024/02/17 07:28:36;;;;;;;26.98;15.60;;;11.30;94.50;;;;;;4022696;29;20105;-80
2024/02/17 07:30:41;;;;;;;27.30;16.50;;;11.30;94.10;;;;;;4022680;29;20080;-78
2024/02/17 07:32:43;;;;;;;28.13;16.48;;;11.40;94.00;;;;;;4023144;29;20046;-77
2024/02/17 07:34:46;;;;;;;27.83;16.55;;;11.40;93.40;;;;;;4022825;29;20096;-80
2024/02/17 07:36:49;;;;;;;26.88;16.13;;;11.40;93.50;;;;;;4029532;29;20060;-80
2024/02/17 07:38:51;;;;;;;27.67;15.82;;;11.40;92.90;;;;;;4026866;29;20480;-80
2024/02/17 07:40:54;;;;;;;25.35;15.45;;;11.50;93.00;;;;;;4021990;29;20065;-79
2024/02/17 07:42:56;;;;;;;28.35;16.17;;;11.40;92.90;;;;;;4022239;29;20049;-79
2024/02/17 07:44:58;;;;;;;27.75;15.65;;;11.40;92.50;;;;;;4043853;29;20081;-82
2024/02/17 07:47:00;;;;;;;25.35;15.85;;;11.50;92.40;;;;;;4032492;29;20113;-80
2024/02/17 07:49:02;;;;;;;26.70;15.45;;;11.50;92.30;;;;;;4029368;29;20058;-81
2024/02/17 07:51:05;;;;;;;27.20;15.52;;;11.50;92.20;;;;;;4011484;29;20050;-81
2024/02/17 07:53:07;;;;;;;26.00;15.98;;;11.50;92.20;;;;;;4006782;29;20050;-80
2024/02/17 07:55:09;;;;;;;27.17;16.70;;;11.50;92.20;;;;;;4033119;29;20053;-80
2024/02/17 07:57:16;;;;;;;28.30;16.00;;;11.50;92.30;;;;;;4032947;29;20069;-81
2024/02/17 07:59:18;;;;;;;26.92;16.90;;;11.50;92.40;;;;;;4049229;29;20060;-81
2024/02/17 08:01:20;;;;;;;29.13;17.48;;;11.50;92.00;;;;;;4029478;29;20058;-81
2024/02/17 08:03:23;;;;;;;30.50;17.02;;;11.50;91.90;;;;;;4029356;29;20098;-80
2024/02/17 08:05:27;;;;;;;28.38;17.05;;;11.40;92.00;;;;;;4034676;29;20076;-82
2024/02/17 08:07:28;;;;;;;27.13;16.10;;;11.30;92.00;;;;;;4029486;29;20050;-82
2024/02/17 08:09:31;;;;;;;34.08;17.25;;;11.30;92.00;;;;;;4015335;29;20105;-82
2024/02/17 08:11:33;;;;;;;28.67;17.25;;;11.40;92.00;;;;;;4022786;29;20073;-83
2024/02/17 08:13:38;;;;;;;27.80;16.25;;;11.40;91.90;;;;;;4036030;29;20050;-80
2024/02/17 08:15:40;;;;;;;27.48;16.00;;;11.40;91.70;;;;;;4030179;29;20438;-82
2024/02/17 08:17:44;;;;;;;24.65;15.18;;;11.40;91.60;;;;;;4034091;29;20060;-83
2024/02/17 08:19:46;;;;;;;30.08;16.73;;;11.40;91.60;;;;;;4017428;29;20127;-82
2024/02/17 08:21:48;;;;;;;26.25;15.82;;;11.50;91.70;;;;;;4033148;29;20518;-81
2024/02/17 08:23:52;;;;;;;26.70;16.05;;;11.50;91.50;;;;;;4028627;29;20058;-81
2024/02/17 08:25:55;;;;;;;25.40;16.05;;;11.40;91.30;;;;;;4015848;29;20050;-80
2024/02/17 08:27:58;;;;;;;27.75;15.65;;;11.40;91.50;;;;;;4026418;29;20046;-81
2024/02/17 08:30:03;;;;;;;25.38;15.85;;;11.50;91.90;;;;;;4032211;29;20113;-83
2024/02/17 08:32:06;;;;;;;27.02;15.70;;;11.50;91.50;;;;;;4037016;29;20659;-82
2024/02/17 08:34:09;;;;;;;25.30;15.65;;;11.50;91.40;;;;;;4035274;29;20057;-81
2024/02/17 08:36:09;;;;;;;27.38;15.18;;;11.50;91.00;;;;;;4017780;29;20057;-79
2024/02/17 08:38:12;;;;;;;26.10;15.30;;;11.40;90.90;;;;;;4014152;29;20053;-83
2024/02/17 08:40:14;;;;;;;25.10;15.23;;;11.40;91.20;;;;;;4027269;29;20069;-81
2024/02/17 08:42:15;;;;;;;26.17;16.30;;;11.50;91.20;;;;;;4022810;29;20054;-81
2024/02/17 08:44:17;;;;;;;24.05;15.00;;;11.60;91.10;;;;;;4031628;29;20479;-81
2024/02/17 08:46:21;;;;;;;26.90;16.15;;;11.70;91.00;;;;;;4019810;29;20050;-81
2024/02/17 08:48:22;;;;;;;27.60;16.50;;;11.70;90.80;;;;;;4018833;29;20058;-80
2024/02/17 08:50:24;;;;;;;25.70;14.93;;;11.80;90.70;;;;;;4036081;29;20049;-80
2024/02/17 08:52:26;;;;;;;23.98;14.85;;;11.70;90.50;;;;;;4023826;29;20144;-76
2024/02/17 08:54:28;;;;;;;24.20;14.77;;;11.70;90.80;;;;;;4017547;29;20096;-77
2024/02/17 08:56:30;;;;;;;25.77;15.82;;;11.90;90.80;;;;;;4022165;29;20109;-81
2024/02/17 08:58:31;;;;;;;23.98;14.77;;;12.00;90.20;;;;;;4018927;29;20082;-81
2024/02/17 09:00:36;;;;;;;26.58;18.05;;;12.10;90.10;;;;;;4032693;29;20053;-82
2024/02/17 09:02:40;;;;;;;21.67;13.75;;;12.10;90.00;;;;;;4031086;29;20045;-82
2024/02/17 09:04:42;;;;;;;20.95;12.80;;;12.20;87.90;;;;;;4021806;29;20077;-82
2024/02/17 09:06:47;;;;;;;20.05;12.65;;;12.20;87.40;;;;;;4032692;29;20050;-83
2024/02/17 09:08:49;;;;;;;21.58;13.93;;;12.20;87.70;;;;;;4025359;29;20058;-84
2024/02/17 09:10:52;;;;;;;24.55;13.73;;;12.20;87.60;;;;;;4038266;29;20124;-82
2024/02/17 09:12:56;;;;;;;21.63;13.50;;;12.20;88.50;;;;;;4030557;29;20086;-81
2024/02/17 09:15:01;;;;;;;19.25;12.25;;;12.20;87.90;;;;;;4024428;29;20088;-83
2024/02/17 09:17:05;;;;;;;20.20;11.95;;;12.20;87.60;;;;;;4031111;29;20060;-78
2024/02/17 09:19:08;;;;;;;17.17;11.55;;;12.20;86.40;;;;;;4035103;29;20070;-78
2024/02/17 09:21:10;;;;;;;19.05;11.88;;;12.20;85.30;;;;;;4033798;29;20129;-79
2024/02/17 09:23:12;;;;;;;19.40;11.80;;;12.10;86.20;;;;;;4019218;29;20322;-77
2024/02/17 09:25:14;;;;;;;21.67;12.35;;;12.10;86.30;;;;;;4015203;29;20074;-79
2024/02/17 09:27:17;;;;;;;20.17;11.25;;;12.20;86.40;;;;;;4019373;29;20472;-78
2024/02/17 09:29:19;;;;;;;18.77;11.88;;;12.10;86.10;;;;;;4013975;29;20084;-78
2024/02/17 09:31:22;;;;;;;20.52;12.70;;;12.10;86.00;;;;;;4013161;29;20057;-80
2024/02/17 09:33:28;;;;;;;19.58;12.65;;;12.10;86.40;;;;;;4022495;29;20048;-79
2024/02/17 09:35:31;;;;;;;20.33;12.57;;;12.10;87.10;;;;;;4020040;29;20054;-78
2024/02/17 09:37:33;;;;;;;38.92;24.65;;;12.10;87.30;;;;;;4010079;29;20546;-79
2024/02/17 09:39:35;;;;;;;26.02;16.38;;;12.10;88.00;;;;;;4015366;29;20050;-82
2024/02/17 09:41:37;;;;;;;20.02;13.65;;;12.20;87.90;;;;;;4018982;29;20057;-79
2024/02/17 09:43:38;;;;;;;17.48;11.18;;;12.20;88.20;;;;;;4016346;29;20049;-78
2024/02/17 09:45:40;;;;;;;18.27;11.32;;;12.20;86.80;;;;;;4010608;29;20083;-76
2024/02/17 09:47:47;;;;;;;18.70;12.07;;;12.30;85.70;;;;;;4015574;29;20060;-73
2024/02/17 09:49:49;;;;;;;17.33;11.63;;;12.30;85.30;;;;;;4010560;29;20046;-80
2024/02/17 09:51:54;;;;;;;15.65;10.88;;;12.40;85.90;;;;;;4010121;29;20084;-78
2024/02/17 09:53:56;;;;;;;18.02;11.68;;;12.50;85.00;;;;;;4000599;29;20085;-85
2024/02/17 09:55:59;;;;;;;15.75;10.95;;;12.50;84.10;;;;;;4024665;29;20045;-81
2024/02/17 09:58:00;;;;;;;17.38;11.00;;;12.30;83.60;;;;;;4024885;29;20058;-85
2024/02/17 10:00:08;;;;;;;14.85;10.70;;;12.20;84.60;;;;;;4023069;29;20121;-83
2024/02/17 10:02:10;;;;;;;16.00;10.43;;;12.10;84.70;;;;;;4009424;29;20069;-80
2024/02/17 10:04:12;;;;;;;15.90;10.80;;;12.00;84.40;;;;;;4009406;29;20045;-82
2024/02/17 10:06:17;;;;;;;16.02;10.90;;;12.10;84.50;;;;;;4015369;29;20057;-79
2024/02/17 10:08:20;;;;;;;15.55;10.82;;;12.20;84.60;;;;;;4017903;29;20057;-82
2024/02/17 10:10:23;;;;;;;16.35;10.88;;;12.30;83.60;;;;;;4019680;29;20129;-82
2024/02/17 10:12:25;;;;;;;17.75;11.90;;;12.40;82.80;;;;;;4006508;29;20140;-83
2024/02/17 10:14:27;;;;;;;19.65;12.30;;;12.30;83.40;;;;;;4013637;29;20062;-82
2024/02/17 10:16:31;;;;;;;18.67;12.60;;;12.20;82.80;;;;;;4009354;29;20054;-81
2024/02/17 10:18:33;;;;;;;18.08;12.50;;;12.10;83.40;;;;;;4013554;29;20057;-78
2024/02/17 10:20:37;;;;;;;17.25;11.90;;;12.20;84.50;;;;;;4015206;29;20109;-79
2024/02/17 10:22:39;;;;;;;18.73;12.57;;;12.30;85.30;;;;;;4013446;29;20132;-77
2024/02/17 10:24:42;;;;;;;18.08;12.10;;;12.40;84.50;;;;;;4017881;29;20050;-80
2024/02/17 10:26:44;;;;;;;14.25;10.50;;;12.60;84.10;;;;;;4019673;29;20062;-78
2024/02/17 10:28:54;;;;;;;16.00;11.13;;;12.70;83.00;;;;;;4018303;29;20100;-77
2024/02/17 10:30:56;;;;;;;17.52;11.82;;;12.80;81.90;;;;;;4014735;29;20098;-79
2024/02/17 10:32:59;;;;;;;17.13;12.00;;;13.00;81.30;;;;;;4018755;29;20050;-79
2024/02/17 10:35:03;;;;;;;17.88;12.27;;;12.80;80.30;;;;;;4018988;29;20049;-77
2024/02/17 10:37:05;;;;;;;17.05;11.82;;;12.70;81.10;;;;;;4020239;29;20078;-78
2024/02/17 10:39:08;;;;;;;16.42;11.52;;;12.80;81.50;;;;;;4010671;29;20053;-80
2024/02/17 10:41:11;;;;;;;16.38;10.80;;;12.80;81.20;;;;;;4010471;29;20450;-79
2024/02/17 10:43:13;;;;;;;14.15;10.73;;;12.80;79.60;;;;;;4018862;29;20053;-80
2024/02/17 10:45:15;;;;;;;17.42;10.60;;;12.80;79.90;;;;;;4010154;29;20054;-78
2024/02/17 10:47:19;;;;;;;15.57;11.05;;;12.90;80.20;;;;;;4015228;29;20547;-78
2024/02/17 10:49:27;;;;;;;15.93;9.75;;;12.80;78.60;;;;;;4014147;29;20137;-79
2024/02/17 10:51:29;;;;;;;11.68;7.72;;;12.70;77.90;;;;;;4009854;29;20085;-81
2024/02/17 10:53:42;;;;;;;14.68;9.55;;;12.70;75.40;;;;;;4014331;29;20059;-79
2024/02/17 10:55:49;;;;;;;14.20;9.60;;;12.70;78.40;;;;;;4016713;29;20551;-79
2024/02/17 10:58:03;;;;;;;14.55;9.90;;;12.60;78.40;;;;;;4016101;29;20053;-77
2024/02/17 11:00:08;;;;;;;15.02;8.95;;;12.70;76.60;;;;;;4016495;29;20632;-83
2024/02/17 11:02:16;;;;;;;11.02;7.45;;;12.80;76.20;;;;;;4020224;29;20102;-83
2024/02/17 11:04:18;;;;;;;11.80;7.18;;;12.90;75.50;;;;;;4020535;29;20052;-78
2024/02/17 11:06:20;;;;;;;10.52;6.32;;;13.10;74.40;;;;;;4019803;29;20054;-78
2024/02/17 11:08:23;;;;;;;10.07;6.13;;;13.20;72.50;;;;;;4009010;29;20054;-84
2024/02/17 11:10:30;;;;;;;14.52;7.85;;;13.40;72.60;;;;;;4024372;29;20453;-90
2024/02/17 11:12:32;;;;;;;11.10;7.07;;;13.50;73.00;;;;;;4022043;29;20069;-84
2024/02/17 11:14:43;;;;;;;14.10;8.95;;;13.60;74.20;;;;;;4010003;29;20050;-84
2024/02/17 11:16:45;;;;;;;14.98;10.23;;;13.60;75.40;;;;;;4023653;29;20057;-86
2024/02/17 11:18:52;;;;;;;16.42;10.18;;;13.60;77.50;;;;;;4030560;29;20108;-87
2024/02/17 11:20:54;;;;;;;14.60;9.95;;;13.60;76.90;;;;;;4023788;29;20065;-86
2024/02/17 11:22:59;;;;;;;15.55;10.50;;;13.60;77.60;;;;;;4031653;29;20077;-86
2024/02/17 11:25:00;;;;;;;16.70;10.27;;;13.60;77.70;;;;;;4010924;29;20077;-87
2024/02/17 11:27:05;;;;;;;16.70;11.63;;;13.50;77.90;;;;;;4014584;29;20057;-87
2024/02/17 11:29:07;;;;;;;15.73;10.13;;;13.50;77.90;;;;;;4012664;29;20045;-83
2024/02/17 11:31:11;;;;;;;18.08;10.73;;;13.50;77.70;;;;;;4017388;29;20101;-85
2024/02/17 11:33:17;;;;;;;18.77;10.60;;;13.50;77.80;;;;;;4021561;29;20053;-84
2024/02/17 11:37:42;;;;;;;17.95;11.40;;;13.40;78.20;;;;;;4025992;29;20050;-86
2024/02/17 11:39:46;;;;;;;17.15;11.30;;;13.50;78.30;;;;;;4028182;29;20083;-86
2024/02/17 11:41:49;;;;;;;16.52;10.60;;;13.70;78.00;;;;;;4034343;29;20112;-90
2024/02/17 11:43:55;;;;;;;16.83;9.82;;;13.80;77.80;;;;;;4027666;29;20045;-87
2024/02/17 11:45:57;;;;;;;;;;;14.00;77.90;;;;;;4039958;29;20038;-89
2024/02/17 11:48:01;;;;;;;9.45;6.60;;;14.20;77.20;;;;;;4033532;29;19996;-90
2024/02/17 11:50:11;;;;;;;10.55;6.57;;;14.30;71.60;;;;;;4034083;29;20053;-88
2024/02/17 11:54:24;;;;;;;9.05;5.53;;;14.50;69.50;;;;;;4067178;29;20056;-90
2024/02/17 11:56:28;;;;;;;11.68;5.40;;;14.50;67.80;;;;;;4069920;29;20055;-86
2024/02/17 12:03:10;;;;;;;9.55;5.68;;;14.50;67.10;;;;;;4046299;29;20077;-86
2024/02/17 12:05:15;;;;;;;10.27;6.20;;;14.60;69.50;;;;;;4046665;29;20049;-84
2024/02/17 12:07:17;;;;;;;12.45;5.95;;;14.60;67.30;;;;;;4039332;29;20567;-90
2024/02/17 12:09:20;;;;;;;10.20;5.25;;;14.80;67.70;;;;;;4029275;29;20046;-85
2024/02/17 12:11:22;;;;;;;11.23;5.13;;;14.80;65.50;;;;;;4003072;29;20161;-83
2024/02/17 12:13:24;;;;;;;6.68;4.15;;;14.90;67.70;;;;;;4034512;29;20056;-79
2024/02/17 12:15:26;;;;;;;7.70;3.92;;;14.90;64.60;;;;;;4030209;29;20065;-84
2024/02/17 12:17:27;;;;;;;6.35;3.63;;;15.00;62.10;;;;;;4021340;29;20140;-83
2024/02/17 12:19:31;;;;;;;6.72;3.28;;;15.10;60.30;;;;;;4036966;29;20432;-84
2024/02/17 12:21:33;;;;;;;6.00;3.30;;;15.30;59.30;;;;;;4022599;29;20042;-89
2024/02/17 12:23:36;;;;;;;6.38;3.30;;;15.10;57.60;;;;;;4035027;29;20105;-82
2024/02/17 12:25:39;;;;;;;7.78;3.42;;;15.10;59.30;;;;;;4037719;29;20049;-87
2024/02/17 12:27:41;;;;;;;6.22;3.20;;;15.10;59.60;;;;;;4038502;29;20049;-80
2024/02/17 12:29:50;;;;;;;5.70;3.45;;;14.80;59.00;;;;;;4020564;29;20125;-80
2024/02/17 12:31:52;;;;;;;5.55;2.95;;;14.70;59.10;;;;;;4020841;29;20496;-81
2024/02/17 12:33:54;;;;;;;5.90;3.00;;;14.90;59.20;;;;;;4040571;29;20105;-78
2024/02/17 12:35:58;;;;;;;5.60;3.15;;;15.20;58.40;;;;;;4037216;29;20495;-81
2024/02/17 12:38:00;;;;;;;5.40;3.33;;;15.10;57.50;;;;;;4040813;29;20073;-85
2024/02/17 12:40:10;;;;;;;21.38;15.70;;;15.30;57.80;;;;;;4041325;29;20452;-84
2024/02/17 12:42:12;;;;;;;6.60;3.50;;;15.50;57.60;;;;;;4021282;29;20140;-83
2024/02/17 12:44:15;;;;;;;6.95;3.53;;;15.60;58.40;;;;;;4037022;29;20060;-82
2024/02/17 12:46:21;;;;;;;7.05;3.80;;;15.50;58.80;;;;;;4005780;29;20134;-82
2024/02/17 12:48:26;;;;;;;8.88;4.07;;;15.50;59.30;;;;;;4037275;29;20045;-80
2024/02/17 12:50:28;;;;;;;7.68;4.13;;;15.50;60.30;;;;;;4037872;29;20049;-84
2024/02/17 12:52:32;;;;;;;6.80;3.63;;;15.40;59.80;;;;;;4037840;29;20479;-85
2024/02/17 12:54:32;;;;;;;8.77;3.38;;;15.50;60.50;;;;;;4021374;29;20087;-83
2024/02/17 12:56:35;;;;;;;7.13;3.35;;;15.50;58.80;;;;;;4020905;29;20061;-83
2024/02/17 12:58:36;;;;;;;7.80;3.60;;;15.50;58.60;;;;;;4038005;29;20057;-85
2024/02/17 13:00:38;;;;;;;7.32;3.50;;;15.50;58.70;;;;;;4040431;29;20144;-85
2024/02/17 13:02:40;;;;;;;7.00;3.72;;;15.80;59.60;;;;;;4040386;29;20176;-83
2024/02/17 13:04:42;;;;;;;8.10;4.45;;;16.20;58.60;;;;;;4024190;29;20054;-85
2024/02/17 13:06:44;;;;;;;9.07;5.15;;;16.30;57.60;;;;;;4040480;29;20526;-84
2024/02/17 13:08:47;;;;;;;7.35;4.13;;;16.30;57.70;;;;;;4041148;29;20052;-85
2024/02/17 13:10:49;;;;;;;7.40;3.90;;;16.20;58.20;;;;;;4041619;29;20057;-84
2024/02/17 13:12:51;;;;;;;8.68;3.83;;;16.20;58.10;;;;;;4042859;29;20053;-85
2024/02/17 13:14:54;;;;;;;6.03;3.13;;;16.20;57.30;;;;;;4041882;29;20057;-87
2024/02/17 13:16:56;;;;;;;8.27;3.28;;;16.40;56.60;;;;;;4043231;29;20087;-83
2024/02/17 13:18:58;;;;;;;6.45;3.25;;;16.50;56.00;;;;;;4027033;29;20068;-84
2024/02/17 13:21:00;;;;;;;5.10;2.90;;;16.80;55.70;;;;;;4044004;29;20431;-84
2024/02/17 13:23:02;;;;;;;5.45;3.20;;;16.80;53.60;;;;;;4045049;29;20106;-84
2024/02/17 13:25:07;;;;;;;6.40;2.88;;;17.00;53.20;;;;;;4027125;29;20062;-86
2024/02/17 13:27:09;;;;;;;6.60;3.33;;;17.60;53.00;;;;;;4028748;29;20101;-87
2024/02/17 13:29:11;;;;;;;8.32;3.35;;;18.10;52.50;;;;;;4043807;29;20445;-86
2024/02/17 13:31:18;;;;;;;3.78;2.00;;;18.40;52.40;;;;;;4028271;29;20053;-87
2024/02/17 13:33:21;;;;;;;5.72;2.50;;;18.40;49.60;;;;;;4047156;29;20149;-85
2024/02/17 13:35:24;;;;;;;4.22;2.63;;;17.90;48.80;;;;;;4044909;29;20057;-86
2024/02/17 13:37:26;;;;;;;5.10;2.78;;;19.60;47.90;;;;;;4045781;29;20056;-87
2024/02/17 13:39:28;;;;;;;4.95;2.75;;;19.90;45.70;;;;;;4048122;29;20530;-87
2024/02/17 13:41:32;;;;;;;5.90;2.50;;;24.50;41.10;;;;;;4047934;29;20078;-86
2024/02/17 13:43:34;;;;;;;5.18;2.55;;;25.80;36.80;;;;;;4048596;29;20053;-88
2024/02/17 13:45:46;;;;;;;4.60;2.28;;;28.60;33.50;;;;;;4047438;29;20053;-87
2024/02/17 13:47:48;;;;;;;5.45;2.70;;;30.60;30.00;;;;;;4041395;29;20057;-86
2024/02/17 13:49:49;;;;;;;4.57;2.45;;;31.50;28.90;;;;;;4041139;29;20056;-86
2024/02/17 13:51:51;;;;;;;5.22;2.83;;;33.00;27.70;;;;;;4044164;29;20049;-85
2024/02/17 13:53:53;;;;;;;4.25;2.70;;;34.90;26.50;;;;;;4034514;29;20435;-85
2024/02/17 13:55:55;;;;;;;5.47;2.65;;;35.70;24.30;;;;;;4045128;29;20455;-85
2024/02/17 13:58:07;;;;;;;3.80;2.40;;;36.00;23.30;;;;;;4052190;29;20498;-86
2024/02/17 14:00:16;;;;;;;4.22;2.08;;;35.60;22.60;;;;;;4044714;29;20072;-87
2024/02/17 14:02:19;;;;;;;5.78;2.97;;;36.60;22.60;;;;;;4046354;29;20629;-87
2024/02/17 14:04:21;;;;;;;4.45;3.58;;;36.00;22.00;;;;;;4029448;29;20484;-87
2024/02/17 14:06:29;;;;;;;4.85;4.07;;;37.50;22.40;;;;;;4041844;29;20075;-86
2024/02/17 14:08:31;;;;;;;13.13;12.13;;;39.30;21.20;;;;;;4025391;29;20057;-86
2024/02/17 14:10:32;;;;;;;8.45;7.75;;;40.30;19.90;;;;;;4045847;29;20480;-86
2024/02/17 14:12:34;;;;;;;9.57;8.82;;;41.00;19.10;;;;;;4023708;29;20431;-86
2024/02/17 14:14:37;;;;;;;11.77;10.98;;;41.40;18.40;;;;;;4043150;29;20048;-85
2024/02/17 14:16:41;;;;;;;9.80;9.13;;;40.50;17.90;;;;;;4046676;29;20057;-85
2024/02/17 14:18:43;;;;;;;9.88;9.13;;;39.50;18.70;;;;;;4043594;29;20445;-86
2024/02/17 14:20:45;;;;;;;3.58;1.98;;;40.20;17.90;;;;;;4044155;29;20173;-86
2024/02/17 14:22:47;;;;;;;18.60;17.60;;;38.00;17.90;;;;;;4043622;29;20380;-87
2024/02/17 14:24:49;;;;;;;10.88;9.98;;;38.70;18.10;;;;;;4015692;29;20092;-88
2024/02/17 14:26:51;;;;;;;10.50;9.73;;;39.00;18.50;;;;;;4012503;29;20087;-86
2024/02/17 14:28:54;;;;;;;17.92;16.77;;;40.00;18.00;;;;;;4024261;29;20049;-86
2024/02/17 14:30:58;;;;;;;10.75;10.05;;;40.30;18.00;;;;;;4027136;29;20068;-85
2024/02/17 14:33:00;;;;;;;11.25;10.45;;;41.60;17.40;;;;;;4010926;29;20063;-86
2024/02/17 14:35:02;;;;;;;11.13;10.32;;;42.20;16.70;;;;;;4030826;29;20045;-85
2024/02/17 14:37:05;;;;;;;4.70;4.30;;;42.80;16.50;;;;;;4010244;29;20572;-86
2024/02/17 14:39:06;;;;;;;17.00;16.00;;;41.10;16.40;;;;;;4024628;29;20406;-76
2024/02/17 14:41:09;;;;;;;13.05;12.20;;;41.10;18.00;;;;;;4013467;29;20114;-78
2024/02/17 14:43:11;;;;;;;11.45;10.63;;;41.40;18.10;;;;;;4018784;29;20045;-75
2024/02/17 14:45:12;;;;;;;3.67;2.00;;;40.60;17.70;;;;;;4022002;29;20053;-77
2024/02/17 14:47:15;;;;;;;6.03;1.70;;;38.60;18.20;;;;;;4023008;29;20102;-77
2024/02/17 14:49:17;;;;;;;4.57;1.90;;;36.90;18.90;;;;;;4007920;29;20057;-77
2024/02/17 14:51:19;;;;;;;4.07;1.60;;;34.10;20.90;;;;;;4007054;29;20058;-76
2024/02/17 14:53:21;;;;;;;4.30;1.48;;;31.50;22.50;;;;;;4022820;29;20500;-79
2024/02/17 14:55:23;;;;;;;3.95;1.50;;;28.60;24.70;;;;;;4021728;29;20137;-77
2024/02/17 14:57:25;;;;;;;4.45;1.70;;;26.40;27.70;;;;;;4021858;29;20054;-76
2024/02/17 14:59:27;;;;;;;3.13;1.83;;;27.40;27.30;;;;;;4022988;29;20053;-77
2024/02/17 15:01:29;;;;;;;8.88;8.18;;;28.00;26.90;;;;;;4029892;29;20133;-76
2024/02/17 15:03:33;;;;;;;5.57;4.00;;;30.20;25.80;;;;;;4024155;29;20106;-76
2024/02/17 15:05:37;;;;;;;6.20;5.60;;;33.40;23.00;;;;;;4026944;29;20085;-77
2024/02/17 15:07:39;;;;;;;4.80;4.35;;;35.10;21.80;;;;;;4025866;29;20234;-77
2024/02/17 15:09:41;;;;;;;6.22;4.70;;;35.90;21.20;;;;;;4024626;29;20669;-78
2024/02/17 15:11:42;;;;;;;7.22;4.50;;;36.20;20.70;;;;;;4025780;29;20082;-75
2024/02/17 15:13:45;;;;;;;4.95;3.33;;;36.40;20.90;;;;;;4023661;29;20456;-75
2024/02/17 15:15:48;;;;;;;4.50;1.80;;;37.20;20.10;;;;;;4035659;29;20045;-80
2024/02/17 15:17:50;;;;;;;3.28;1.80;;;33.10;21.40;;;;;;4040635;29;20053;-78
2024/02/17 15:19:53;;;;;;;5.30;2.80;;;30.90;23.80;;;;;;4038317;29;20152;-77
2024/02/17 15:21:54;;;;;;;4.78;2.80;;;31.70;23.40;;;;;;4031201;29;20395;-76
2024/02/17 15:23:56;;;;;;;3.47;2.17;;;33.00;22.10;;;;;;4009576;29;20053;-75
2024/02/17 15:25:58;;;;;;;4.65;1.92;;;32.90;22.10;;;;;;4034457;29;20108;-76
2024/02/17 15:28:00;;;;;;;4.55;1.80;;;32.90;21.50;;;;;;4038173;29;20075;-75
2024/02/17 15:30:01;;;;;;;4.35;2.60;;;32.20;22.80;;;;;;4037189;29;20793;-77
2024/02/17 15:32:03;;;;;;;6.82;2.83;;;33.50;22.10;;;;;;4027909;29;20053;-77
2024/02/17 15:34:05;;;;;;;4.57;2.13;;;34.80;21.10;;;;;;4022377;29;20057;-77
2024/02/17 15:36:10;;;;;;;5.05;2.40;;;35.20;20.70;;;;;;4029000;29;20108;-76
2024/02/17 15:38:12;;;;;;;;;;;35.00;20.70;;;;;;4037772;29;20053;-77
2024/02/17 15:40:15;;;;;;;5.88;2.40;;;34.20;21.30;;;;;;4038957;29;19980;-79
2024/02/17 15:42:18;;;;;;;4.03;1.38;;;33.70;21.20;;;;;;4025241;29;20049;-80
2024/02/17 15:44:19;;;;;;;3.95;1.50;;;31.90;22.00;;;;;;4039716;29;20149;-77
2024/02/17 15:46:22;;;;;;;2.83;1.60;;;31.00;23.40;;;;;;4024416;29;20121;-75
2024/02/17 15:48:25;;;;;;;5.20;1.40;;;29.50;23.90;;;;;;4031185;29;20049;-75
2024/02/17 15:50:29;;;;;;;5.47;1.45;;;26.80;26.50;;;;;;4020298;29;20061;-78
2024/02/17 15:52:32;;;;;;;4.57;1.70;;;25.30;28.50;;;;;;4026923;29;20049;-76
2024/02/17 15:54:34;;;;;;;3.60;1.27;;;24.30;30.00;;;;;;4035663;29;20105;-77
2024/02/17 15:56:36;;;;;;;3.50;1.60;;;24.00;30.60;;;;;;4036916;29;20118;-76
2024/02/17 15:58:39;;;;;;;3.90;1.65;;;22.90;32.70;;;;;;4035928;29;20125;-76
2024/02/17 16:00:41;;;;;;;3.53;1.90;;;22.40;34.30;;;;;;4031216;29;20058;-78
2024/02/17 16:02:43;;;;;;;3.80;1.70;;;21.80;35.50;;;;;;4023058;29;20049;-78
2024/02/17 16:04:45;;;;;;;5.43;1.90;;;21.30;36.50;;;;;;4030543;29;20053;-79
2024/02/17 16:06:46;;;;;;;4.88;2.00;;;20.80;37.80;;;;;;4022991;29;20052;-80
2024/02/17 16:08:50;;;;;;;4.85;2.20;;;20.50;38.80;;;;;;4026522;29;20053;-74
2024/02/17 16:10:52;;;;;;;7.40;2.28;;;20.10;40.00;;;;;;4033130;29;20053;-78
2024/02/17 16:12:54;;;;;;;4.82;1.88;;;19.90;41.00;;;;;;4027411;29;20412;-78
2024/02/17 16:14:56;;;;;;;5.72;2.25;;;19.80;41.30;;;;;;4027330;29;20041;-76
2024/02/17 16:16:58;;;;;;;3.65;1.75;;;19.60;41.70;;;;;;4023988;29;20472;-78
2024/02/17 16:19:00;;;;;;;5.82;2.00;;;19.50;42.00;;;;;;4025560;29;20148;-79
2024/02/17 16:21:01;;;;;;;4.57;2.10;;;19.40;42.70;;;;;;4028278;29;20148;-76
2024/02/17 16:23:03;;;;;;;5.63;2.33;;;19.30;43.50;;;;;;4026356;29;20050;-78
2024/02/17 16:25:09;;;;;;;7.00;2.38;;;19.00;43.40;;;;;;4027797;29;20084;-78
2024/02/17 16:27:12;;;;;;;5.72;2.40;;;18.80;44.20;;;;;;4021352;29;20535;-78
2024/02/17 16:29:13;;;;;;;6.82;2.45;;;18.60;45.10;;;;;;4021236;29;20128;-78
2024/02/17 16:31:14;;;;;;;5.00;2.55;;;18.40;45.50;;;;;;4027306;29;20057;-77
2024/02/17 16:33:17;;;;;;;7.07;2.53;;;18.10;46.30;;;;;;4027410;29;20105;-79
2024/02/17 16:35:18;;;;;;;4.88;2.28;;;18.00;47.20;;;;;;4029140;29;20053;-76
2024/02/17 16:37:20;;;;;;;5.65;2.28;;;17.90;47.70;;;;;;4030467;29;20061;-75
2024/02/17 16:39:22;;;;;;;5.60;2.58;;;17.70;48.20;;;;;;4031035;29;20054;-76
2024/02/17 16:41:26;;;;;;;5.97;2.42;;;17.60;48.50;;;;;;4030988;29;20045;-77